Time;durP1;ratioP1;P1;durP2;ratioP2;P2;SDS_P1;SDS_P2;PMS_P1;PMS_P2;Temp;Humidity;BMP_temperature;BMP_pressure;BME280_temperature;BME280_humidity;BME280_pressure;Samples;Min_cycle;Max_cycle;Signal;HPM_P1;HPM_P2
2024/01/17 05:01:40;;;;;;;22.05;11.77;;;;;;;-4.60;100.00;67979.06;6049558;28;20160;-83
2024/01/17 05:04:44;;;;;;;19.73;10.70;;;;;;;-4.56;100.00;67984.25;5317628;33;34441;-83
2024/01/17 05:07:47;;;;;;;24.65;11.65;;;;;;;-4.53;100.00;67991.72;5311127;33;33575;-83
2024/01/17 05:10:50;;;;;;;21.27;11.25;;;;;;;-4.15;100.00;68030.09;5301274;33;33270;-84
2024/01/17 05:13:53;;;;;;;24.92;9.93;;;;;;;-4.21;100.00;68022.63;5325806;33;33435;-84
2024/01/17 05:16:56;;;;;;;21.10;10.63;;;;;;;-3.99;100.00;68047.28;5312608;33;33190;-84
2024/01/17 05:19:59;;;;;;;24.70;11.35;;;;;;;-3.99;100.00;68049.91;5312680;33;33352;-83
2024/01/17 05:23:02;;;;;;;22.05;11.57;;;;;;;-3.87;100.00;68061.06;5325585;33;33268;-83
2024/01/17 05:26:05;;;;;;;20.12;11.68;;;;;;;-3.94;100.00;68053.59;5326001;33;34555;-86
2024/01/17 05:29:08;;;;;;;29.33;12.48;;;;;;;-3.93;100.00;68054.75;5312808;33;33202;-88
2024/01/17 05:32:11;;;;;;;22.35;10.45;;;;;;;-3.84;100.00;68067.09;5313076;33;34908;-87
2024/01/17 05:35:15;;;;;;;29.08;11.15;;;;;;;-3.81;100.00;68069.97;5326122;33;33963;-84
2024/01/17 05:38:18;;;;;;;24.92;12.13;;;;;;;-3.82;100.00;68066.22;5326554;33;33464;-83
2024/01/17 05:41:21;;;;;;;24.85;11.77;;;;;;;-3.88;100.00;68063.09;5313084;33;34980;-83
2024/01/17 05:44:24;;;;;;;19.62;9.60;;;;;;;-3.76;100.00;68076.28;5325617;33;33390;-83
2024/01/17 05:47:27;;;;;;;20.88;10.93;;;;;;;-3.79;100.00;68070.25;5312607;33;33609;-83
2024/01/17 05:50:30;;;;;;;22.17;11.65;;;;;;;-3.95;100.00;68057.09;5312057;33;33079;-83
2024/01/17 05:53:33;;;;;;;30.92;11.15;;;;;;;-4.08;100.00;68037.56;5325393;33;34237;-83
2024/01/17 05:56:36;;;;;;;28.75;11.55;;;;;;;-4.20;100.00;68026.41;5312338;33;33176;-83
2024/01/17 05:59:39;;;;;;;19.95;10.90;;;;;;;-4.24;100.00;68021.81;5312597;33;33425;-83
2024/01/17 06:02:45;;;;;;;26.65;10.82;;;;;;;-4.18;100.00;68026.09;5303189;33;33038;-83
2024/01/17 06:05:48;;;;;;;23.42;12.32;;;;;;;-3.95;100.00;68057.69;5289749;33;34907;-83
2024/01/17 06:08:51;;;;;;;20.40;10.20;;;;;;;-4.00;100.00;68049.34;5276947;33;33412;-82
2024/01/17 06:11:55;;;;;;;22.50;10.50;;;;;;;-4.03;100.00;68045.91;5290238;33;33448;-83
2024/01/17 06:14:57;;;;;;;24.77;10.43;;;;;;;-3.92;100.00;68055.31;5276749;33;34443;-83
2024/01/17 06:18:01;;;;;;;30.62;11.73;;;;;;;-3.71;100.00;68082.03;5276582;33;33323;-83
2024/01/17 06:21:04;;;;;;;26.02;12.27;;;;;;;-3.51;100.00;68101.78;5286334;33;34160;-83
2024/01/17 06:24:07;;;;;;;23.52;12.37;;;;;;;-3.15;100.00;68144.00;5289674;33;34026;-83
2024/01/17 06:27:11;;;;;;;26.77;11.12;;;;;;;-3.14;100.00;68200.00;5276658;33;33363;-83
2024/01/17 06:30:17;;;;;;;27.37;12.32;;;;;;;-3.13;100.00;68204.34;5275119;33;34944;-83
2024/01/17 06:33:20;;;;;;;25.02;12.35;;;;;;;-2.93;100.00;68169.22;5265126;33;33010;-82
2024/01/17 06:36:24;;;;;;;21.35;11.55;;;;;;;-2.77;100.00;68189.66;5289565;33;33711;-82
2024/01/17 06:39:26;;;;;;;24.10;11.57;;;;;;;-2.70;100.00;68191.88;5292485;33;33867;-82
2024/01/17 06:42:30;;;;;;;23.52;12.13;;;;;;;-2.64;100.00;68201.97;5277740;33;33367;-83
2024/01/17 06:45:32;;;;;;;19.87;10.35;;;;;;;-2.65;100.00;68200.81;5290573;33;33595;-82
2024/01/17 06:48:36;;;;;;;23.45;10.73;;;;;;;-2.71;100.00;68193.94;5294634;33;34501;-82
2024/01/17 06:51:45;;;;;;;23.27;11.32;;;;;;;-2.67;100.00;68195.34;5277224;33;33363;-83
2024/01/17 06:54:48;;;;;;;23.80;11.65;;;;;;;-2.60;100.00;68209.19;5276590;33;33463;-83
2024/01/17 06:57:51;;;;;;;19.83;11.02;;;;;;;-2.55;100.00;68212.28;5276203;33;34130;-83
2024/01/17 07:00:54;;;;;;;26.65;11.12;;;;;;;-2.60;100.00;68203.94;5275995;33;34113;-83
2024/01/17 07:03:57;;;;;;;22.48;11.25;;;;;;;-2.53;100.00;68217.22;5295723;33;33392;-83
2024/01/17 07:07:00;;;;;;;21.80;10.90;;;;;;;-2.47;100.00;68220.34;5309872;33;34235;-82
2024/01/17 07:10:05;;;;;;;18.95;10.13;;;;;;;-2.45;100.00;68223.22;5282489;33;34335;-83
2024/01/17 07:13:08;;;;;;;25.98;12.25;;;;;;;-2.40;100.00;68231.00;5307454;33;32955;-83
2024/01/17 07:16:15;;;;;;;28.92;12.48;;;;;;;-2.64;100.00;68198.78;5310647;33;34203;-82
2024/01/17 07:19:18;;;;;;;21.33;11.85;;;;;;;-2.44;100.00;68224.34;5304551;33;34499;-83
2024/01/17 07:22:21;;;;;;;20.08;10.57;;;;;;;-2.54;100.00;68210.84;5301258;33;33448;-82
2024/01/17 07:25:24;;;;;;;20.52;11.57;;;;;;;-2.63;100.00;68203.13;5309696;33;33824;-82
2024/01/17 07:28:27;;;;;;;22.35;10.10;;;;;;;-2.60;100.00;68263.50;5311987;33;33459;-83
2024/01/17 07:31:30;;;;;;;22.27;10.18;;;;;;;-2.59;100.00;68209.75;5290198;33;34419;-82
2024/01/17 07:34:33;;;;;;;20.65;11.70;;;;;;;-2.62;100.00;68204.25;5320566;33;33105;-82
2024/01/17 07:37:37;;;;;;;20.88;10.82;;;;;;;-2.42;100.00;68228.72;5306106;33;33695;-86
2024/01/17 07:40:40;;;;;;;20.35;10.70;;;;;;;-2.40;100.00;68231.00;5325138;33;33686;-87
2024/01/17 07:43:44;;;;;;;21.50;11.30;;;;;;;-2.32;100.00;68240.19;5302682;33;33738;-87
2024/01/17 07:46:47;;;;;;;19.10;10.45;;;;;;;-2.28;100.00;68239.56;5306867;33;33758;-83
2024/01/17 07:49:50;;;;;;;21.27;10.30;;;;;;;-2.32;100.00;68234.94;5299095;33;33789;-83
2024/01/17 07:52:53;;;;;;;17.90;11.45;;;;;;;-2.25;100.00;68245.63;5312546;33;33358;-82
2024/01/17 07:55:58;;;;;;;24.25;11.55;;;;;;;-2.34;100.00;68238.47;5321973;33;34228;-84
2024/01/17 07:59:01;;;;;;;26.40;12.07;;;;;;;-2.33;100.00;68236.44;5298152;33;33653;-83
2024/01/17 08:02:04;;;;;;;23.67;11.35;;;;;;;-2.33;100.00;68239.63;5301181;33;34159;-82
2024/01/17 08:05:07;;;;;;;20.48;10.55;;;;;;;-2.21;100.00;68250.22;5284112;33;33590;-82
2024/01/17 08:08:11;;;;;;;21.65;10.73;;;;;;;-2.14;100.00;68310.00;5323403;33;33578;-83
2024/01/17 08:11:14;;;;;;;22.87;10.85;;;;;;;-2.19;100.00;68252.50;5311957;33;33359;-84
2024/01/17 08:14:17;;;;;;;28.87;12.18;;;;;;;-2.25;100.00;68245.63;5307458;33;34113;-85
2024/01/17 08:17:19;;;;;;;26.70;13.02;;;;;;;-2.19;100.00;68255.13;5286056;33;33171;-85
2024/01/17 08:20:22;;;;;;;25.73;12.13;;;;;;;-2.06;100.00;68322.38;5308496;33;33881;-85
2024/01/17 08:23:25;;;;;;;27.70;12.50;;;;;;;-2.08;100.00;68265.16;5294363;33;33176;-83
2024/01/17 08:26:28;;;;;;;20.80;11.77;;;;;;;-2.09;100.00;68318.94;5296991;33;33336;-83
2024/01/17 08:29:31;;;;;;;26.10;11.88;;;;;;;-1.89;100.00;68340.81;5311232;33;33738;-84
2024/01/17 08:32:34;;;;;;;28.67;11.68;;;;;;;-2.03;100.00;68267.69;5290811;33;33142;-84
2024/01/17 08:35:37;;;;;;;21.62;11.25;;;;;;;-2.02;100.00;68268.25;5296575;33;33566;-83
2024/01/17 08:38:43;;;;;;;19.25;10.00;;;;;;;-2.01;100.00;68324.38;5313128;33;33855;-84
2024/01/17 08:41:47;;;;;;;25.05;12.10;;;;;;;-2.07;100.00;68263.69;5295544;33;34162;-84
2024/01/17 08:44:50;;;;;;;20.42;9.82;;;;;;;-2.08;100.00;68261.94;5313365;33;33634;-84
2024/01/17 08:47:54;;;;;;;21.42;10.65;;;;;;;-2.19;100.00;68252.50;5295505;33;33371;-84
2024/01/17 08:50:56;;;;;;;25.08;11.00;;;;;;;-2.18;100.00;68253.09;5308437;33;33404;-84
2024/01/17 08:54:00;;;;;;;24.95;11.70;;;;;;;-2.06;100.00;68267.44;5303096;33;33316;-84
2024/01/17 08:57:03;;;;;;;21.87;9.50;;;;;;;-2.03;100.00;68270.31;5296434;33;34228;-83
2024/01/17 09:00:08;;;;;;;21.02;10.60;;;;;;;-2.06;100.00;68264.81;5295611;33;32969;-83
2024/01/17 09:03:11;;;;;;;20.80;9.98;;;;;;;-1.95;100.00;68281.56;5316649;33;33264;-84
2024/01/17 09:06:14;;;;;;;19.23;9.45;;;;;;;-1.94;100.00;68338.22;5321050;33;33531;-84
2024/01/17 09:09:17;;;;;;;19.45;9.70;;;;;;;-1.93;100.00;68281.22;5314596;33;34781;-84
2024/01/17 09:12:20;;;;;;;23.65;9.93;;;;;;;-1.89;100.00;68286.41;5283400;33;33239;-84
2024/01/17 09:15:23;;;;;;;16.92;9.45;;;;;;;-1.77;100.00;68299.06;5309760;33;33366;-84
2024/01/17 09:18:27;;;;;;;20.52;10.05;;;;;;;-1.76;100.00;68300.19;5294367;33;32964;-84
2024/01/17 09:21:31;;;;;;;22.37;10.95;;;;;;;-1.83;100.00;68290.09;5271081;33;33532;-84
2024/01/17 09:24:36;;;;;;;21.73;10.07;;;;;;;-1.72;100.00;68305.38;5306527;33;33655;-84
2024/01/17 09:27:39;;;;;;;17.27;9.18;;;;;;;-1.68;100.00;68309.97;5293844;33;33293;-85
2024/01/17 09:30:42;;;;;;;17.12;8.23;;;;;;;-1.55;100.00;68326.38;5293780;33;33969;-84
2024/01/17 09:33:45;;;;;;;18.05;9.18;;;;;;;-1.61;100.00;68315.41;5294474;33;33276;-84
2024/01/17 09:36:49;;;;;;;19.70;7.93;;;;;;;-1.51;100.00;68328.38;5299943;33;33896;-84
2024/01/17 09:39:52;;;;;;;24.85;8.60;;;;;;;-1.58;100.00;68317.69;5278479;33;34081;-84
2024/01/17 09:42:57;;;;;;;16.30;7.65;;;;;;;-1.70;100.00;68307.09;5293823;33;33942;-84
2024/01/17 09:46:14;;;;;;;16.70;7.90;;;;;;;-1.58;100.00;68318.25;5306846;33;33197;-89
2024/01/17 09:49:17;;;;;;;14.48;7.68;;;;;;;-1.73;100.00;68306.25;5306670;33;34648;-89
2024/01/17 09:52:22;;;;;;;17.15;8.48;;;;;;;-1.77;100.00;68351.97;5293519;33;33126;-84
2024/01/17 09:55:27;;;;;;;15.07;7.87;;;;;;;-1.76;100.00;68302.81;5305759;33;33653;-84
2024/01/17 09:58:35;;;;;;;14.02;7.35;;;;;;;-1.81;100.00;68295.03;5306777;33;33731;-84
2024/01/17 10:01:38;;;;;;;14.68;7.80;;;;;;;-1.91;100.00;68286.72;5293232;33;33063;-84
2024/01/17 10:04:42;;;;;;;14.63;7.97;;;;;;;-1.91;100.00;68283.53;5294037;33;33259;-84
2024/01/17 10:07:45;;;;;;;17.70;8.85;;;;;;;-1.78;100.00;68297.88;5308105;33;33222;-83
2024/01/17 10:10:48;;;;;;;16.27;8.00;;;;;;;-1.84;100.00;68288.97;5308038;33;34611;-84
2024/01/17 10:13:51;;;;;;;13.45;8.00;;;;;;;-1.69;100.00;68363.81;5314130;33;33968;-84
2024/01/17 10:16:54;;;;;;;21.83;8.65;;;;;;;-1.72;100.00;68360.34;5309705;33;33592;-84
2024/01/17 10:19:57;;;;;;;15.35;8.48;;;;;;;-1.70;100.00;68310.28;5307208;33;33845;-84
2024/01/17 10:23:00;;;;;;;14.85;8.27;;;;;;;-1.65;100.00;68316.03;5297107;33;33591;-84
2024/01/17 10:26:04;;;;;;;15.13;8.88;;;;;;;-1.71;100.00;68303.91;5294498;33;33389;-84
2024/01/17 10:29:09;;;;;;;14.13;7.72;;;;;;;-1.69;100.00;68305.63;5298411;33;33505;-85
2024/01/17 10:32:12;;;;;;;18.17;8.90;;;;;;;-1.67;100.00;68313.75;5311625;33;33329;-84
2024/01/17 10:35:15;;;;;;;14.68;8.63;;;;;;;-1.52;100.00;68324.59;5296227;33;33140;-84
2024/01/17 10:38:18;;;;;;;23.02;9.15;;;;;;;-1.34;100.00;68345.28;5285940;33;33429;-85
2024/01/17 10:41:21;;;;;;;15.40;8.98;;;;;;;-1.07;100.00;68383.63;5303297;33;34463;-84
2024/01/17 10:44:25;;;;;;;20.42;9.82;;;;;;;-0.99;100.00;68389.63;5294115;33;33384;-84
2024/01/17 10:47:28;;;;;;;19.37;9.77;;;;;;;-0.97;100.00;68394.53;5292486;33;33428;-84
2024/01/17 10:50:31;;;;;;;20.08;9.70;;;;;;;-0.88;100.00;68399.66;5304111;33;33537;-84
2024/01/17 10:53:36;;;;;;;22.10;10.18;;;;;;;-0.97;100.00;68389.88;5292490;33;34322;-85
2024/01/17 10:57:00;;;;;;;20.52;10.18;;;;;;;-0.92;100.00;68397.69;5295720;33;33515;-85
2024/01/17 11:00:08;;;;;;;17.80;8.40;;;;;;;-0.95;100.00;68394.22;5307129;33;33887;-84
2024/01/17 11:03:18;;;;;;;18.70;8.95;;;;;;;-0.93;100.00;68393.91;5311431;33;33495;-84
2024/01/17 11:06:23;;;;;;;19.75;10.07;;;;;;;-0.95;100.00;68388.97;5305463;33;33498;-84
2024/01/17 11:09:27;;;;;;;16.98;9.35;;;;;;;-1.05;100.00;68380.09;5318258;33;33013;-84
2024/01/17 11:12:36;;;;;;;18.70;9.88;;;;;;;-0.96;100.00;68391.03;5324919;33;33052;-84
2024/01/17 11:15:39;;;;;;;17.55;10.30;;;;;;;-1.05;100.00;68382.72;5324500;33;34085;-84
2024/01/17 11:18:46;;;;;;;19.55;9.32;;;;;;;-1.12;100.00;68374.66;5307508;33;33014;-84
2024/01/17 11:21:50;;;;;;;18.45;8.95;;;;;;;-1.09;100.00;68375.50;5307658;33;34791;-84
2024/01/17 11:25:17;;;;;;;22.10;9.90;;;;;;;-1.18;100.00;68365.72;5308086;33;35026;-86
2024/01/17 11:28:22;;;;;;;18.40;8.82;;;;;;;-1.12;100.00;68374.66;5315125;33;33991;-84
2024/01/17 11:31:41;;;;;;;20.02;10.00;;;;;;;-0.98;100.00;68385.53;5336078;33;34831;-84
2024/01/17 11:34:43;;;;;;;22.73;10.57;;;;;;;-0.96;100.00;68393.09;5320661;33;34303;-85
2024/01/17 11:37:46;;;;;;;25.80;9.98;;;;;;;-0.91;100.00;68398.81;5298520;33;33433;-84
2024/01/17 11:40:56;;;;;;;19.27;10.02;;;;;;;-0.92;100.00;68392.44;5306005;33;33098;-84
2024/01/17 11:43:59;;;;;;;18.25;10.27;;;;;;;-0.89;100.00;68455.63;5304487;33;33456;-84
2024/01/17 11:47:02;;;;;;;19.37;9.48;;;;;;;-0.85;100.00;68405.16;5305769;33;33036;-84
2024/01/17 11:50:05;;;;;;;17.45;8.75;;;;;;;-0.84;100.00;68403.69;5282371;33;33834;-85
2024/01/17 11:53:08;;;;;;;20.45;9.63;;;;;;;-0.91;100.00;68396.19;5283751;33;33403;-84
2024/01/17 11:56:13;;;;;;;19.90;9.95;;;;;;;-0.80;100.00;68410.91;5283110;33;33717;-84
2024/01/17 11:59:19;;;;;;;18.20;10.52;;;;;;;-0.94;100.00;68395.38;5294862;33;34006;-84
2024/01/17 12:02:35;;;;;;;18.92;9.38;;;;;;;-0.95;100.00;68449.28;5297220;33;33353;-84
2024/01/17 12:05:44;;;;;;;19.27;10.02;;;;;;;-0.86;100.00;68404.56;5309239;33;33283;-84
2024/01/17 12:08:48;;;;;;;17.77;10.23;;;;;;;-0.81;100.00;68407.72;5305784;33;33410;-85
2024/01/17 12:12:19;;;;;;;17.05;9.77;;;;;;;-0.71;100.00;68421.84;5314168;33;32962;-85
2024/01/17 12:15:36;;;;;;;20.75;10.45;;;;;;;-0.62;100.00;68431.59;5309080;33;34740;-89
2024/01/17 12:18:39;;;;;;;21.40;10.00;;;;;;;-0.62;100.00;68431.03;5291387;33;34271;-88
2024/01/17 12:21:46;;;;;;;17.45;8.95;;;;;;;-0.67;100.00;68420.63;5311675;33;34270;-89
2024/01/17 12:24:49;;;;;;;20.40;10.05;;;;;;;-0.58;100.00;68433.03;5312199;33;33560;-84
2024/01/17 12:27:54;;;;;;;18.55;9.63;;;;;;;-0.60;100.00;68430.72;5300029;33;33808;-84
2024/01/17 12:31:06;;;;;;;18.15;9.48;;;;;;;-0.56;100.00;68493.03;5309389;33;33387;-84
2024/01/17 12:34:10;;;;;;;20.40;9.65;;;;;;;-0.53;100.00;68441.41;5310615;33;33626;-84
2024/01/17 12:37:14;;;;;;;19.37;9.98;;;;;;;-0.54;100.00;68437.63;5293853;33;33813;-84
2024/01/17 12:40:17;;;;;;;20.58;9.98;;;;;;;-0.57;100.00;68434.19;5308444;33;33538;-84
2024/01/17 12:43:21;;;;;;;22.77;11.48;;;;;;;-0.60;100.00;68485.81;5289797;33;33471;-84
2024/01/17 12:46:25;;;;;;;22.62;10.80;;;;;;;-0.54;100.00;68440.81;5307442;33;33875;-84
2024/01/17 12:49:28;;;;;;;21.45;9.30;;;;;;;-0.48;100.00;68444.53;5312085;33;33479;-84
2024/01/17 12:52:31;;;;;;;20.27;10.77;;;;;;;-0.48;100.00;68450.34;5302958;33;33459;-84
2024/01/17 12:55:35;;;;;;;20.70;10.45;;;;;;;-0.44;100.00;68451.75;5293641;33;33423;-84
2024/01/17 12:58:38;;;;;;;19.10;10.23;;;;;;;-0.32;100.00;68465.56;5319034;33;33736;-84
2024/01/17 13:01:42;;;;;;;21.25;10.23;;;;;;;-0.18;100.00;68478.47;5295471;33;34243;-84
2024/01/17 13:05:10;;;;;;;23.77;10.38;;;;;;;-0.23;100.00;68472.72;5303022;33;33082;-84
2024/01/17 13:08:22;;;;;;;19.48;10.38;;;;;;;-0.16;100.00;68480.22;5311868;33;33391;-84
2024/01/17 13:11:25;;;;;;;16.08;9.32;;;;;;;-0.06;100.00;68491.72;5325715;33;33405;-84
2024/01/17 13:14:33;;;;;;;19.67;10.88;;;;;;;-0.13;100.00;68484.22;5324153;33;33915;-84
2024/01/17 13:17:36;;;;;;;18.60;10.05;;;;;;;-0.14;100.00;68482.53;5324793;33;34245;-85
2024/01/17 13:20:41;;;;;;;20.75;10.90;;;;;;;-0.20;100.00;68533.94;5311085;33;33889;-83
2024/01/17 13:23:44;;;;;;;21.75;9.55;;;;;;;-0.08;100.00;68486.81;5298445;33;33814;-83
2024/01/17 13:26:47;;;;;;;16.08;9.80;;;;;;;-0.17;100.00;68532.13;5281975;33;33275;-83
2024/01/17 13:29:50;;;;;;;19.87;10.20;;;;;;;-0.18;100.00;68477.91;5308532;33;33572;-83
2024/01/17 13:32:55;;;;;;;20.08;10.30;;;;;;;-0.11;100.00;68486.53;5273881;33;33148;-83
2024/01/17 13:35:58;;;;;;;20.12;10.23;;;;;;;-0.04;100.00;68494.03;5308211;33;33843;-83
2024/01/17 13:39:03;;;;;;;21.20;11.27;;;;;;;-0.06;100.00;68489.69;5288584;33;33534;-84
2024/01/17 13:42:06;;;;;;;20.27;10.25;;;;;;;-0.07;100.00;68493.19;5289314;33;33174;-83
2024/01/17 13:45:12;;;;;;;17.37;10.07;;;;;;;-0.02;100.00;68554.66;5277723;33;33295;-83
2024/01/17 13:48:16;;;;;;;19.95;9.88;;;;;;;-0.01;100.00;68494.84;5280003;33;33344;-86
2024/01/17 13:51:22;;;;;;;18.58;10.07;;;;;;;0.02;100.00;68503.56;5291493;33;34757;-87
2024/01/17 13:54:26;;;;;;;22.00;10.65;;;;;;;0.06;100.00;68508.16;5291129;33;34861;-88
2024/01/17 13:57:29;;;;;;;21.35;9.95;;;;;;;0.01;100.00;68499.78;5291072;33;33397;-84
2024/01/17 14:00:38;;;;;;;22.87;10.50;;;;;;;-0.13;100.00;68486.84;5291162;33;33872;-84
2024/01/17 14:03:41;;;;;;;19.17;9.85;;;;;;;0.02;100.00;68556.06;5294989;33;35052;-83
2024/01/17 14:06:45;;;;;;;21.23;11.07;;;;;;;0.12;100.00;68567.03;5290827;33;33120;-84
2024/01/17 14:09:49;;;;;;;24.75;11.32;;;;;;;0.00;100.00;68496.00;5288435;33;33385;-84
2024/01/17 14:12:54;;;;;;;21.37;10.45;;;;;;;-0.01;100.00;68498.03;5288622;33;34106;-84
2024/01/17 14:15:58;;;;;;;19.35;10.25;;;;;;;-0.04;100.00;68491.97;5288631;33;34023;-84
2024/01/17 14:19:02;;;;;;;21.92;10.73;;;;;;;-0.17;100.00;68479.06;5288495;33;33480;-85
2024/01/17 14:22:05;;;;;;;22.02;10.60;;;;;;;-0.27;100.00;68465.50;5290468;33;33554;-83
2024/01/17 14:25:10;;;;;;;20.90;10.43;;;;;;;-0.38;100.00;68453.41;5292859;33;33311;-84
2024/01/17 14:28:13;;;;;;;22.50;10.40;;;;;;;-0.26;100.00;68466.66;5298991;33;33092;-83
2024/01/17 14:31:16;;;;;;;18.48;9.73;;;;;;;-0.29;100.00;68469.03;5282569;33;35000;-83
2024/01/17 14:34:21;;;;;;;18.48;9.77;;;;;;;-0.31;100.00;68469.34;5326293;33;33461;-86
2024/01/17 14:37:24;;;;;;;18.70;10.10;;;;;;;-0.30;100.00;68465.25;5300838;33;33689;-83
2024/01/17 14:40:27;;;;;;;19.50;10.60;;;;;;;-0.41;100.00;68449.38;5287567;33;33574;-82
2024/01/17 14:43:30;;;;;;;18.73;10.45;;;;;;;-0.49;100.00;68443.97;5287960;33;33525;-83
2024/01/17 14:46:35;;;;;;;18.67;10.23;;;;;;;-0.42;100.00;68448.81;5288217;33;33438;-83
2024/01/17 14:49:37;;;;;;;21.00;9.88;;;;;;;-0.51;100.00;68441.06;5288194;33;33116;-83
2024/01/17 14:52:41;;;;;;;22.80;10.68;;;;;;;-0.44;100.00;68448.56;5295710;33;33529;-84
2024/01/17 14:55:43;;;;;;;19.15;9.45;;;;;;;-0.47;100.00;68443.63;5306252;33;33687;-83
2024/01/17 14:58:46;;;;;;;19.10;9.75;;;;;;;-0.27;100.00;68470.75;5309487;33;33670;-83
2024/01/17 15:01:49;;;;;;;17.85;10.32;;;;;;;-0.27;100.00;68468.69;5293607;33;33451;-83
2024/01/17 15:04:53;;;;;;;22.62;10.25;;;;;;;-0.33;100.00;68459.16;5282989;33;33472;-83
2024/01/17 15:07:57;;;;;;;21.10;10.85;;;;;;;-0.45;100.00;68447.97;5307566;33;33978;-83
2024/01/17 15:11:00;;;;;;;17.95;10.40;;;;;;;-0.51;100.00;68441.06;5294145;33;34282;-83
2024/01/17 15:14:03;;;;;;;23.55;10.93;;;;;;;-0.59;100.00;68432.44;5306883;33;33096;-83
2024/01/17 15:17:06;;;;;;;20.50;10.85;;;;;;;-0.66;100.00;68423.81;5294641;33;33985;-83
2024/01/17 15:20:11;;;;;;;25.25;11.07;;;;;;;-0.74;100.00;68415.19;5306887;33;33396;-83
2024/01/17 15:23:14;;;;;;;21.95;10.93;;;;;;;-0.66;100.00;68423.81;5294001;33;33586;-82
2024/01/17 15:26:17;;;;;;;23.98;11.43;;;;;;;-0.68;100.00;68422.09;5306048;33;34098;-83
2024/01/17 15:29:20;;;;;;;21.70;11.12;;;;;;;-0.69;100.00;68424.13;5300054;33;192814;-82
2024/01/17 15:32:23;;;;;;;29.20;13.18;;;;;;;-0.67;100.00;68423.25;5292897;33;33484;-82
2024/01/17 15:35:26;;;;;;;26.62;11.27;;;;;;;-0.61;100.00;68432.19;5277919;33;33145;-82
2024/01/17 15:38:30;;;;;;;25.35;12.32;;;;;;;-0.59;100.00;68432.44;5281225;33;33402;-82
2024/01/17 15:41:34;;;;;;;21.17;11.73;;;;;;;-0.43;100.00;68454.97;5315598;33;34080;-83
2024/01/17 15:44:37;;;;;;;20.17;11.23;;;;;;;-0.41;100.00;68507.09;5293785;33;34575;-83
2024/01/17 15:47:43;;;;;;;1971.13;485.63;;;;;;;-0.41;100.00;68507.69;5294269;33;33395;-83
2024/01/17 15:50:48;;;;;;;1910.70;752.55;;;;;;;-0.39;100.00;68456.94;5293259;33;33543;-86
2024/01/17 15:53:51;;;;;;;1760.70;464.37;;;;;;;-0.57;100.00;68437.38;5306737;33;34376;-87
2024/01/17 15:56:54;;;;;;;1876.38;527.70;;;;;;;-0.48;100.00;68447.16;5306748;33;34412;-88
2024/01/17 15:59:57;;;;;;;1956.00;563.53;;;;;;;-0.56;100.00;68438.50;5293263;33;34173;-84
2024/01/17 16:03:03;;;;;;;1790.05;481.87;;;;;;;-0.45;100.00;68447.97;5292894;33;33448;-84
2024/01/17 16:06:06;;;;;;;1943.60;499.35;;;;;;;-0.43;100.00;68508.00;5294109;33;33188;-83
2024/01/17 16:09:11;;;;;;;1729.07;455.13;;;;;;;-0.37;100.00;68459.25;5306764;33;34168;-83
2024/01/17 16:12:15;;;;;;;1999.90;650.00;;;;;;;-0.44;100.00;68446.50;5307380;33;34433;-83
2024/01/17 16:15:18;;;;;;;1568.53;418.30;;;;;;;-0.40;100.00;68450.53;5295491;33;33742;-83
2024/01/17 16:18:21;;;;;;;1786.03;493.33;;;;;;;-0.47;100.00;68446.25;5309398;33;33317;-83
2024/01/17 16:21:25;;;;;;;1775.70;431.63;;;;;;;-0.48;100.00;68441.91;5312743;33;33980;-84
2024/01/17 16:24:28;;;;;;;1872.65;498.23;;;;;;;-0.52;100.00;68437.88;5306762;33;33467;-84
2024/01/17 16:27:30;;;;;;;1845.80;533.50;;;;;;;-0.46;100.00;68447.41;5301782;33;33360;-84
2024/01/17 16:30:34;;;;;;;1770.10;486.98;;;;;;;-0.39;100.00;68454.31;5286025;33;34460;-83
2024/01/17 16:33:36;;;;;;;1724.43;453.62;;;;;;;-0.36;100.00;68460.97;5294350;33;33969;-84
2024/01/17 16:36:40;;;;;;;1711.97;459.98;;;;;;;-0.38;100.00;68455.44;5307248;33;33409;-84
2024/01/17 16:39:43;;;;;;;1766.13;446.42;;;;;;;-0.47;100.00;68501.34;5293362;33;33704;-84
2024/01/17 16:42:46;;;;;;;1614.40;443.83;;;;;;;-0.43;100.00;68507.44;5293336;33;33267;-83
2024/01/17 16:45:49;;;;;;;1643.03;475.77;;;;;;;-0.52;100.00;68497.66;5293028;33;33472;-84
2024/01/17 16:48:52;;;;;;;1678.78;409.33;;;;;;;-0.47;100.00;68443.03;5306016;33;33604;-83
2024/01/17 16:51:55;;;;;;;1727.62;682.62;;;;;;;-0.35;100.00;68459.50;5306121;33;33637;-83
2024/01/17 16:54:59;;;;;;;1735.47;701.50;;;;;;;-0.35;100.00;68459.50;5281371;33;33071;-84
2024/01/17 16:58:02;;;;;;;1696.68;421.20;;;;;;;-0.26;100.00;68469.84;5305684;33;33505;-84
2024/01/17 17:01:07;;;;;;;1669.95;372.25;;;;;;;-0.32;100.00;68462.94;5305357;33;33609;-84
2024/01/17 17:04:10;;;;;;;1529.40;392.87;;;;;;;-0.29;100.00;68469.03;5306094;33;34446;-84
